createdAt,value
2019-02-23T00:00:07.443Z,73.28
2019-02-23T00:02:36.847Z,74.00
2019-02-23T00:05:06.275Z,73.72
2019-02-23T00:07:35.706Z,73.25
2019-02-23T00:10:05.074Z,73.12
2019-02-23T00:12:34.527Z,71.61
2019-02-23T00:15:05.031Z,69.56
2019-02-23T00:17:34.422Z,69.89
2019-02-23T00:20:03.801Z,69.67
2019-02-23T00:22:33.239Z,68.33
2019-02-23T00:25:02.667Z,66.98
2019-02-23T00:27:32.078Z,65.25
2019-02-23T00:30:01.459Z,65.06
2019-02-23T00:32:30.875Z,64.98
2019-02-23T00:35:00.335Z,64.64
2019-02-23T00:37:29.755Z,64.89
2019-02-23T00:39:59.118Z,65.95
2019-02-23T00:42:28.530Z,67.83
2019-02-23T00:44:57.932Z,67.14
2019-02-23T00:47:27.361Z,67.35
2019-02-23T00:49:56.783Z,67.06
2019-02-23T00:52:26.194Z,69.33
2019-02-23T00:54:55.615Z,73.29
2019-02-23T00:57:25.104Z,75.54
2019-02-23T00:59:54.470Z,75.03
2019-02-23T01:02:23.881Z,74.01
2019-02-23T01:04:53.305Z,72.05
2019-02-23T01:07:22.759Z,70.87
2019-02-23T01:09:52.132Z,71.77
2019-02-23T01:12:21.551Z,71.07
2019-02-23T01:14:50.917Z,71.68
2019-02-23T01:17:20.319Z,72.03
2019-02-23T01:19:49.715Z,71.86
2019-02-23T01:22:19.117Z,72.81
2019-02-23T01:24:48.546Z,72.81
2019-02-23T01:27:17.964Z,71.45
2019-02-23T01:29:47.358Z,71.60
2019-02-23T01:32:16.737Z,71.40
2019-02-23T01:34:46.170Z,71.33
2019-02-23T01:37:15.555Z,73.75
2019-02-23T01:39:44.959Z,73.75
2019-02-23T01:42:14.340Z,74.79
2019-02-23T01:44:43.771Z,74.61
2019-02-23T01:47:13.175Z,73.70
2019-02-23T01:49:42.607Z,72.38
2019-02-23T01:52:11.986Z,70.80
2019-02-23T01:54:41.490Z,70.80
2019-02-23T01:57:10.874Z,70.94
2019-02-23T01:59:40.355Z,70.94
2019-02-23T02:02:09.814Z,71.58
2019-02-23T02:04:39.325Z,71.19
2019-02-23T02:07:08.784Z,71.19
2019-02-23T02:09:38.207Z,71.61
2019-02-23T02:12:09.271Z,71.28
2019-02-23T02:14:38.690Z,70.95
2019-02-23T02:17:08.126Z,69.95
2019-02-23T02:19:37.558Z,69.90
2019-02-23T02:22:06.947Z,69.56
2019-02-23T02:24:36.370Z,67.92
2019-02-23T02:27:05.806Z,67.43
2019-02-23T02:29:35.227Z,71.19
2019-02-23T02:32:04.580Z,71.19
2019-02-23T02:34:33.984Z,71.08
2019-02-23T02:37:03.365Z,71.80
2019-02-23T02:39:32.792Z,72.75
2019-02-23T02:42:02.166Z,73.78
2019-02-23T02:44:31.579Z,72.44
2019-02-23T02:47:00.938Z,72.44
2019-02-23T02:49:30.400Z,72.95
2019-02-23T02:51:59.736Z,73.57
2019-02-23T02:54:29.556Z,74.09
2019-02-23T02:56:58.927Z,73.71
2019-02-23T02:59:28.308Z,73.71
2019-02-23T03:01:58.945Z,72.41
2019-02-23T03:04:28.529Z,71.21
2019-02-23T03:06:57.926Z,69.86
2019-02-23T03:09:27.334Z,69.86
2019-02-23T03:11:56.740Z,68.97
2019-02-23T03:14:26.137Z,69.32
2019-02-23T03:16:55.628Z,69.73
2019-02-23T03:19:25.025Z,69.77
2019-02-23T03:21:54.461Z,71.80
2019-02-23T03:24:23.836Z,71.80
2019-02-23T03:26:53.259Z,70.52
2019-02-23T03:29:22.673Z,69.53
2019-02-23T03:31:52.092Z,69.53
2019-02-23T03:34:21.537Z,70.63
2019-02-23T03:36:50.981Z,71.62
2019-02-23T03:39:20.333Z,71.62
2019-02-23T03:41:49.747Z,71.76
2019-02-23T03:44:19.138Z,71.40
2019-02-23T03:46:50.201Z,72.38
2019-02-23T03:49:19.589Z,72.38
2019-02-23T03:51:49.097Z,71.61
2019-02-23T03:54:18.542Z,72.24
2019-02-23T03:56:48.009Z,72.24
2019-02-23T03:59:17.493Z,71.29
2019-02-23T04:01:47.187Z,70.62
2019-02-23T04:04:16.938Z,71.26
2019-02-23T04:06:46.603Z,71.47
2019-02-23T04:09:16.238Z,71.47
2019-02-23T04:11:45.944Z,71.70
2019-02-23T04:14:15.570Z,71.11
2019-02-23T04:16:45.237Z,70.69
2019-02-23T04:19:14.887Z,70.73
2019-02-23T04:21:44.579Z,71.68
2019-02-23T04:24:14.256Z,71.00
2019-02-23T04:26:43.939Z,70.90
2019-02-23T04:29:13.570Z,70.90
2019-02-23T04:31:43.137Z,70.84
2019-02-23T04:34:12.799Z,71.14
2019-02-23T04:36:42.454Z,71.14
2019-02-23T04:39:12.124Z,71.47
2019-02-23T04:41:41.735Z,70.14
2019-02-23T04:44:11.399Z,69.96
2019-02-23T04:46:41.059Z,69.96
2019-02-23T04:49:10.768Z,69.73
2019-02-23T04:51:40.415Z,70.45
2019-02-23T04:54:10.064Z,69.52
2019-02-23T04:56:39.773Z,69.52
2019-02-23T04:59:09.410Z,70.04
2019-02-23T05:01:39.039Z,69.95
2019-02-23T05:04:08.720Z,68.78
2019-02-23T05:06:38.360Z,69.44
2019-02-23T05:09:08.003Z,69.12
2019-02-23T05:11:37.575Z,69.93
2019-02-23T05:14:07.211Z,69.70
2019-02-23T05:16:36.799Z,70.01
2019-02-23T05:19:06.480Z,69.99
2019-02-23T05:21:36.125Z,70.16
2019-02-23T05:24:05.775Z,70.16
2019-02-23T05:26:35.417Z,69.44
2019-02-23T05:29:05.009Z,69.74
2019-02-23T05:31:34.636Z,70.28
2019-02-23T05:34:04.305Z,70.19
2019-02-23T05:36:33.991Z,70.25
2019-02-23T05:39:03.857Z,69.68
2019-02-23T05:41:33.369Z,69.04
2019-02-23T05:44:02.962Z,69.33
2019-02-23T05:46:32.699Z,68.82
2019-02-23T05:49:02.347Z,68.32
2019-02-23T05:51:38.800Z,68.55
2019-02-23T05:54:03.410Z,69.85
2019-02-23T05:56:33.097Z,70.22
2019-02-23T05:59:02.738Z,69.64
2019-02-23T06:01:32.392Z,69.36
2019-02-23T06:04:02.028Z,69.88
2019-02-23T06:06:31.558Z,69.82
2019-02-23T06:09:01.289Z,70.46
2019-02-23T06:11:30.996Z,69.91
2019-02-23T06:14:00.641Z,69.47
2019-02-23T06:16:30.272Z,68.73
2019-02-23T06:18:59.875Z,68.14
2019-02-23T06:21:29.633Z,68.25
2019-02-23T06:23:59.279Z,66.61
2019-02-23T06:26:28.936Z,65.74
2019-02-23T06:28:58.603Z,65.28
2019-02-23T06:31:28.258Z,64.72
2019-02-23T06:33:57.986Z,63.84
2019-02-23T06:36:27.674Z,63.84
2019-02-23T06:38:57.345Z,62.72
2019-02-23T06:41:26.978Z,61.36
2019-02-23T06:43:56.650Z,61.00
2019-02-23T06:46:26.328Z,60.87
2019-02-23T06:48:55.970Z,61.70
2019-02-23T06:51:25.620Z,61.70
2019-02-23T06:53:55.180Z,63.93
2019-02-23T06:56:24.818Z,64.20
2019-02-23T06:58:54.404Z,64.20
2019-02-23T07:01:24.059Z,64.48
2019-02-23T07:03:53.717Z,64.12
2019-02-23T07:06:23.386Z,62.97
2019-02-23T07:08:53.067Z,61.89
2019-02-23T07:11:22.687Z,63.71
2019-02-23T07:13:52.232Z,63.31
2019-02-23T07:16:21.931Z,64.83
2019-02-23T07:18:51.568Z,63.55
2019-02-23T07:21:21.282Z,64.07
2019-02-23T07:23:50.936Z,64.07
2019-02-23T07:26:20.605Z,61.93
2019-02-23T07:28:50.268Z,62.09
2019-02-23T07:31:19.890Z,61.43
2019-02-23T07:33:49.549Z,60.18
2019-02-23T07:36:19.139Z,59.38
2019-02-23T07:38:48.791Z,58.79
2019-02-23T07:41:18.454Z,60.58
2019-02-23T07:43:48.011Z,61.17
2019-02-23T07:46:17.661Z,61.39
2019-02-23T07:48:47.311Z,59.63
2019-02-23T07:51:17.088Z,59.63
2019-02-23T07:53:47.166Z,61.45
2019-02-23T07:56:16.809Z,61.40
2019-02-23T07:58:46.491Z,61.40
2019-02-23T08:01:16.132Z,60.50
2019-02-23T08:03:45.787Z,59.82
2019-02-23T08:06:15.444Z,58.55
2019-02-23T08:08:45.099Z,58.38
2019-02-23T08:11:14.753Z,58.37
2019-02-23T08:13:44.400Z,58.44
2019-02-23T08:16:13.974Z,55.45
2019-02-23T08:18:43.648Z,55.45
2019-02-23T08:21:13.341Z,53.44
2019-02-23T08:23:42.954Z,51.63
2019-02-23T08:26:12.599Z,52.53
2019-02-23T08:28:45.023Z,53.67
2019-02-23T08:31:14.794Z,53.21
2019-02-23T08:33:44.482Z,52.16
2019-02-23T08:36:14.122Z,51.97
2019-02-23T08:38:43.678Z,52.20
2019-02-23T08:41:13.344Z,52.33
2019-02-23T08:43:42.942Z,52.66
2019-02-23T08:46:12.580Z,52.16
2019-02-23T08:48:42.161Z,52.48
2019-02-23T08:51:11.816Z,52.92
2019-02-23T08:53:41.482Z,51.59
2019-02-23T08:56:11.237Z,52.04
2019-02-23T08:58:40.877Z,54.01
2019-02-23T09:01:10.553Z,54.97
2019-02-23T09:03:40.243Z,53.43
2019-02-23T09:06:09.900Z,54.22
2019-02-23T09:08:39.551Z,53.94
2019-02-23T09:11:09.199Z,53.48
2019-02-23T09:13:38.859Z,52.58
2019-02-23T09:16:08.481Z,52.47
2019-02-23T09:18:38.089Z,50.85
2019-02-23T09:21:07.721Z,52.11
2019-02-23T09:23:37.420Z,52.99
2019-02-23T09:26:07.022Z,53.45
2019-02-23T09:28:36.626Z,52.50
2019-02-23T09:31:06.393Z,50.02
2019-02-23T09:33:36.004Z,50.37
2019-02-23T09:36:05.654Z,51.03
2019-02-23T09:38:35.228Z,51.91
2019-02-23T09:41:04.803Z,51.98
2019-02-23T09:43:34.564Z,52.24
2019-02-23T09:46:04.187Z,51.24
2019-02-23T09:48:33.757Z,51.24
2019-02-23T09:51:03.428Z,53.20
2019-02-23T09:53:33.088Z,53.52
2019-02-23T09:56:02.757Z,52.84
2019-02-23T09:58:32.435Z,52.76
2019-02-23T10:01:01.839Z,50.69
2019-02-23T10:03:31.209Z,50.50
2019-02-23T10:06:00.617Z,49.35
2019-02-23T10:08:30.021Z,49.56
2019-02-23T10:10:59.475Z,49.01
2019-02-23T10:13:28.813Z,48.92
2019-02-23T10:15:58.329Z,48.90
2019-02-23T10:18:27.677Z,49.02
2019-02-23T10:20:57.035Z,48.90
2019-02-23T10:23:26.494Z,48.68
2019-02-23T10:25:55.857Z,48.73
2019-02-23T10:28:25.271Z,49.78
2019-02-23T10:30:54.603Z,50.32
2019-02-23T10:33:24.012Z,48.45
2019-02-23T10:35:53.386Z,47.64
2019-02-23T10:38:22.780Z,48.59
2019-02-23T10:40:52.122Z,49.72
2019-02-23T10:43:21.550Z,49.03
2019-02-23T10:45:50.935Z,48.45
2019-02-23T10:48:20.362Z,47.21
2019-02-23T10:50:49.702Z,46.80
2019-02-23T10:53:19.159Z,47.10
2019-02-23T10:55:48.522Z,46.43
2019-02-23T10:58:17.926Z,47.49
2019-02-23T11:00:47.265Z,48.09
2019-02-23T11:03:16.665Z,45.60
2019-02-23T11:05:46.035Z,47.59
2019-02-23T11:08:15.426Z,47.50
2019-02-23T11:10:44.782Z,47.79
2019-02-23T11:13:14.191Z,46.85
2019-02-23T11:15:43.546Z,46.86
2019-02-23T11:18:12.951Z,47.61
2019-02-23T11:20:42.302Z,44.86
2019-02-23T11:23:11.713Z,45.80
2019-02-23T11:25:41.131Z,46.44
2019-02-23T11:28:10.530Z,44.51
2019-02-23T11:30:39.899Z,45.55
2019-02-23T11:33:09.342Z,45.52
2019-02-23T11:35:38.721Z,43.20
2019-02-23T11:38:08.091Z,42.47
2019-02-23T11:40:37.578Z,44.43
2019-02-23T11:43:07.016Z,44.21
2019-02-23T11:45:36.452Z,41.37
2019-02-23T11:48:05.836Z,42.05
2019-02-23T11:50:35.242Z,42.76
2019-02-23T11:53:04.582Z,42.59
2019-02-23T11:55:34.046Z,43.11
2019-02-23T11:58:03.440Z,44.17
2019-02-23T12:00:32.848Z,42.13
2019-02-23T12:03:02.213Z,42.25
2019-02-23T12:05:31.640Z,41.77
2019-02-23T12:08:00.984Z,41.83
2019-02-23T12:10:30.457Z,41.34
2019-02-23T12:12:59.842Z,42.59
2019-02-23T12:15:29.244Z,41.80
2019-02-23T12:17:58.593Z,41.50
2019-02-23T12:20:28.049Z,39.63
2019-02-23T12:22:57.423Z,41.26
2019-02-23T12:25:26.840Z,40.77
2019-02-23T12:27:56.212Z,40.55
2019-02-23T12:30:25.607Z,39.94
2019-02-23T12:32:55.002Z,38.26
2019-02-23T12:35:24.421Z,39.68
2019-02-23T12:37:53.783Z,39.96
2019-02-23T12:40:23.185Z,40.32
2019-02-23T12:42:52.624Z,39.39
2019-02-23T12:45:22.036Z,39.49
2019-02-23T12:47:51.405Z,37.84
2019-02-23T12:50:20.812Z,38.27
2019-02-23T12:52:50.177Z,37.75
2019-02-23T12:55:19.575Z,37.74
2019-02-23T12:57:48.991Z,37.28
2019-02-23T13:00:18.499Z,37.79
2019-02-23T13:02:47.906Z,37.50
2019-02-23T13:05:17.322Z,37.38
2019-02-23T13:07:46.748Z,37.29
2019-02-23T13:10:16.121Z,38.25
2019-02-23T13:13:30.192Z,36.80
2019-02-23T13:16:07.064Z,35.93
2019-02-23T13:19:29.636Z,37.52
2019-02-23T13:22:48.331Z,36.49
2019-02-23T13:25:55.588Z,36.51
2019-02-23T13:28:38.606Z,35.26
2019-02-23T13:31:46.202Z,36.37
2019-02-23T13:35:07.766Z,34.83
2019-02-23T13:38:29.583Z,35.85
2019-02-23T13:41:32.924Z,35.36
2019-02-23T13:44:48.902Z,34.76
2019-02-23T13:47:47.510Z,34.42
2019-02-23T13:51:09.775Z,33.61
2019-02-23T13:54:08.478Z,33.95
2019-02-23T13:57:06.270Z,34.83
2019-02-23T13:59:57.583Z,34.25
2019-02-23T14:03:23.235Z,33.18
2019-02-23T14:06:20.310Z,33.82
2019-02-23T14:09:32.746Z,34.53
2019-02-23T14:12:57.166Z,34.93
2019-02-23T14:16:22.680Z,34.85
2019-02-23T14:19:32.527Z,34.04
2019-02-23T14:22:58.311Z,35.20
2019-02-23T14:26:09.350Z,33.99
2019-02-23T14:29:00.655Z,33.63
2019-02-23T14:31:59.604Z,33.05
2019-02-23T14:35:19.211Z,33.66
2019-02-23T14:38:28.090Z,34.04
2019-02-23T14:41:35.697Z,32.67
2019-02-23T14:44:44.282Z,33.00
2019-02-23T14:47:35.370Z,32.42
2019-02-23T14:50:43.921Z,34.26
2019-02-23T14:54:00.053Z,33.75
2019-02-23T14:57:10.433Z,35.03
2019-02-23T15:00:00.251Z,35.25
2019-02-23T15:03:09.861Z,34.63
2019-02-23T15:05:54.177Z,35.78
2019-02-23T15:09:22.728Z,35.22
2019-02-23T15:12:22.151Z,35.80
2019-02-23T15:15:11.820Z,34.39
2019-02-23T15:18:24.508Z,35.99
2019-02-23T15:21:37.949Z,34.76
2019-02-23T15:24:48.190Z,35.45
2019-02-23T15:28:37.233Z,34.02
2019-02-23T15:31:37.549Z,33.24
2019-02-23T15:34:50.692Z,34.06
2019-02-23T15:38:24.165Z,34.69
2019-02-23T15:41:26.888Z,34.81
2019-02-23T15:44:28.323Z,35.57
2019-02-23T15:47:28.183Z,34.98
2019-02-23T15:49:57.645Z,35.45
2019-02-23T15:52:27.142Z,35.68
2019-02-23T15:54:56.455Z,36.25
2019-02-23T15:57:25.884Z,35.72
2019-02-23T15:59:55.267Z,35.83
2019-02-23T16:02:24.684Z,36.32
2019-02-23T16:04:54.035Z,36.59
2019-02-23T16:07:23.444Z,37.29
2019-02-23T16:09:52.812Z,36.47
2019-02-23T16:12:22.215Z,37.27
2019-02-23T16:14:51.570Z,37.17
2019-02-23T16:17:20.985Z,36.24
2019-02-23T16:19:50.354Z,36.55
2019-02-23T16:22:19.782Z,35.66
2019-02-23T16:24:49.201Z,34.10
2019-02-23T16:27:18.567Z,34.38
2019-02-23T16:29:47.922Z,33.69
2019-02-23T16:32:17.351Z,35.04
2019-02-23T16:34:46.770Z,35.06
2019-02-23T16:37:16.153Z,35.53
2019-02-23T16:39:45.478Z,36.08
2019-02-23T16:42:14.879Z,36.37
2019-02-23T16:44:44.247Z,36.57
2019-02-23T16:47:13.669Z,36.85
2019-02-23T16:49:43.058Z,37.18
2019-02-23T16:52:12.464Z,36.28
2019-02-23T16:54:41.848Z,36.76
2019-02-23T16:57:11.331Z,36.47
2019-02-23T16:59:40.667Z,36.88
2019-02-23T17:02:10.034Z,35.78
2019-02-23T17:04:39.430Z,36.00
2019-02-23T17:07:08.804Z,36.18
2019-02-23T17:09:38.217Z,35.82
2019-02-23T17:12:07.602Z,35.60
2019-02-23T17:14:37.002Z,35.65
2019-02-23T17:17:06.348Z,36.35
2019-02-23T17:19:35.775Z,36.89
2019-02-23T17:22:05.130Z,36.96
2019-02-23T17:24:34.535Z,37.79
2019-02-23T17:27:03.915Z,37.50
2019-02-23T17:29:33.294Z,37.58
2019-02-23T17:32:02.660Z,37.57
2019-02-23T17:34:32.445Z,37.62
2019-02-23T17:37:01.789Z,37.60
2019-02-23T17:39:31.167Z,37.49
2019-02-23T17:42:00.520Z,37.46
2019-02-23T17:44:29.914Z,37.14
2019-02-23T17:46:59.300Z,37.43
2019-02-23T17:49:28.704Z,37.73
2019-02-23T17:51:58.068Z,37.48
2019-02-23T17:54:27.463Z,37.65
2019-02-23T17:56:56.874Z,38.10
2019-02-23T17:59:26.304Z,37.14
2019-02-23T18:01:55.656Z,37.79
2019-02-23T18:04:25.059Z,37.70
2019-02-23T18:06:54.440Z,37.84
2019-02-23T18:09:23.916Z,37.51
2019-02-23T18:11:53.262Z,37.83
2019-02-23T18:14:22.596Z,37.59
2019-02-23T18:16:52.001Z,38.18
2019-02-23T18:19:21.354Z,37.49
2019-02-23T18:21:50.763Z,37.27
2019-02-23T18:24:20.178Z,37.53
2019-02-23T18:26:49.601Z,37.36
2019-02-23T18:29:18.962Z,37.49
2019-02-23T18:31:48.366Z,37.34
2019-02-23T18:34:17.725Z,37.18
2019-02-23T18:36:47.147Z,37.07
2019-02-23T18:39:16.581Z,37.33
2019-02-23T18:41:45.989Z,37.04
2019-02-23T18:44:15.441Z,37.27
2019-02-23T18:46:44.838Z,37.44
2019-02-23T18:49:14.239Z,38.04
2019-02-23T18:51:43.691Z,37.85
2019-02-23T18:54:13.062Z,37.97
2019-02-23T18:56:42.523Z,37.77
2019-02-23T18:59:11.985Z,37.38
2019-02-23T19:01:41.555Z,37.38
2019-02-23T19:04:12.269Z,37.19
2019-02-23T19:06:41.854Z,37.87
2019-02-23T19:09:11.383Z,37.93
2019-02-23T19:11:40.839Z,37.83
2019-02-23T19:14:10.184Z,37.78
2019-02-23T19:16:39.614Z,37.86
2019-02-23T19:19:08.987Z,38.30
2019-02-23T19:21:38.387Z,38.50
2019-02-23T19:24:07.732Z,38.41
2019-02-23T19:26:38.410Z,39.04
2019-02-23T19:29:08.023Z,39.35
2019-02-23T19:31:37.411Z,39.09
2019-02-23T19:34:06.771Z,39.94
2019-02-23T19:36:36.130Z,39.74
2019-02-23T19:39:05.821Z,39.21
2019-02-23T19:41:35.170Z,39.29
2019-02-23T19:44:05.276Z,38.77
2019-02-23T19:46:35.971Z,39.21
2019-02-23T19:49:05.372Z,39.61
2019-02-23T19:51:34.735Z,40.29
2019-02-23T19:54:04.140Z,40.98
2019-02-23T19:56:33.516Z,42.43
2019-02-23T19:59:02.914Z,42.59
2019-02-23T20:01:32.273Z,42.59
2019-02-23T20:04:01.691Z,43.97
2019-02-23T20:06:31.046Z,44.38
2019-02-23T20:09:00.472Z,44.34
2019-02-23T20:11:29.833Z,44.40
2019-02-23T20:13:59.259Z,44.33
2019-02-23T20:16:28.606Z,44.33
2019-02-23T20:18:58.013Z,44.13
2019-02-23T20:21:27.397Z,42.21
2019-02-23T20:23:56.818Z,42.21
2019-02-23T20:26:26.162Z,42.76
2019-02-23T20:28:55.545Z,43.17
2019-02-23T20:31:24.931Z,43.17
2019-02-23T20:33:54.338Z,42.33
2019-02-23T20:36:23.691Z,41.65
2019-02-23T20:38:53.076Z,40.87
2019-02-23T20:41:22.435Z,40.87
2019-02-23T20:43:51.905Z,40.87
2019-02-23T20:46:21.265Z,40.64
2019-02-23T20:48:50.831Z,40.28
2019-02-23T20:51:20.214Z,40.28
2019-02-23T20:53:49.639Z,40.53
2019-02-23T20:56:19.073Z,39.98
2019-02-23T20:58:48.487Z,39.48
2019-02-23T21:01:18.086Z,39.48
2019-02-23T21:03:47.473Z,39.51
2019-02-23T21:06:16.879Z,38.89
2019-02-23T21:08:46.470Z,38.53
2019-02-23T21:11:16.254Z,38.53
2019-02-23T21:13:45.938Z,38.16
2019-02-23T21:16:15.551Z,38.16
2019-02-23T21:18:45.345Z,38.05
2019-02-23T21:21:14.988Z,37.82
2019-02-23T21:23:44.549Z,38.03
2019-02-23T21:26:14.467Z,37.75
2019-02-23T21:28:44.062Z,38.30
2019-02-23T21:31:13.751Z,38.30
2019-02-23T21:33:44.453Z,38.19
2019-02-23T21:36:14.066Z,38.15
2019-02-23T21:38:43.506Z,37.90
2019-02-23T21:41:13.147Z,37.78
2019-02-23T21:43:43.220Z,37.97
2019-02-23T21:46:13.991Z,38.92
2019-02-23T21:48:43.701Z,38.57
2019-02-23T21:51:13.366Z,38.25
2019-02-23T21:53:43.034Z,39.06
2019-02-23T21:56:12.897Z,39.06
2019-02-23T21:58:42.662Z,39.34
2019-02-23T22:01:12.219Z,39.77
2019-02-23T22:03:41.963Z,40.15
2019-02-23T22:06:11.710Z,39.79
2019-02-23T22:08:41.682Z,39.08
2019-02-23T22:11:11.352Z,39.08
2019-02-23T22:13:41.111Z,38.70
2019-02-23T22:16:10.759Z,37.76
2019-02-23T22:18:40.302Z,37.76
2019-02-23T22:21:09.977Z,37.37
2019-02-23T22:23:39.663Z,37.24
2019-02-23T22:26:09.411Z,37.04
2019-02-23T22:28:39.063Z,36.60
2019-02-23T22:31:08.715Z,36.80
2019-02-23T22:33:38.377Z,36.80
2019-02-23T22:36:08.014Z,36.75
2019-02-23T22:38:37.564Z,36.58
2019-02-23T22:41:06.961Z,36.22
2019-02-23T22:43:36.334Z,36.22
2019-02-23T22:46:05.682Z,36.90
2019-02-23T22:48:35.075Z,37.09
2019-02-23T22:51:04.421Z,37.09
2019-02-23T22:53:33.919Z,35.90
2019-02-23T22:56:03.428Z,37.24
2019-02-23T22:58:32.920Z,37.18
2019-02-23T23:01:04.032Z,38.73
2019-02-23T23:03:33.559Z,40.34
2019-02-23T23:06:02.969Z,40.34
2019-02-23T23:08:32.472Z,40.87
2019-02-23T23:11:01.819Z,40.87
2019-02-23T23:13:31.234Z,41.32
2019-02-23T23:16:00.634Z,42.07
2019-02-23T23:18:30.044Z,42.07
2019-02-23T23:20:59.422Z,41.18
2019-02-23T23:23:28.903Z,40.79
2019-02-23T23:25:58.286Z,40.16
2019-02-23T23:28:27.694Z,39.97
2019-02-23T23:30:57.049Z,39.97
2019-02-23T23:33:26.539Z,39.66
2019-02-23T23:35:55.897Z,40.45
2019-02-23T23:38:25.388Z,40.64
2019-02-23T23:40:54.787Z,40.63
2019-02-23T23:43:24.204Z,40.85
2019-02-23T23:45:53.587Z,40.85
2019-02-23T23:48:23.017Z,41.12
2019-02-23T23:50:52.370Z,41.83
2019-02-23T23:53:21.752Z,41.95
2019-02-23T23:55:51.208Z,41.95
2019-02-23T23:58:20.567Z,42.01
